fusioninventory-agent [kinetic/armhf]

Version Triggers Date Duration Requester Result
1:2.6-2 libjson-pp-perl/4.10000-1 2022-06-25 18:57:57 UTC 0h 13m 51s - pass logartifacts
1:2.6-2 libwww-perl/6.67-1 2022-06-18 08:20:25 UTC 0h 13m 43s - pass logartifacts
1:2.6-2 libproc-daemon-perl/0.23-2 2022-06-17 20:00:29 UTC 0h 14m 26s - pass logartifacts
1:2.6-2 libsocket-getaddrinfo-perl/0.22-4 2022-06-17 18:49:39 UTC 0h 12m 54s - pass logartifacts
1:2.6-2 libnet-cups-perl/0.64-2 2022-06-17 02:40:33 UTC 0h 15m 26s - pass logartifacts
1:2.6-2 libnet-nbname-perl/0.26-3 2022-06-17 00:47:38 UTC 0h 13m 40s - pass logartifacts
1:2.6-2 libxml-treepp-perl/0.43-1.1 2022-06-15 07:50:19 UTC 0h 15m 19s - pass logartifacts
1:2.6-2 libsocket-getaddrinfo-perl/0.22-3.1 2022-06-15 07:41:07 UTC 0h 13m 24s - pass logartifacts
1:2.6-2 libproc-daemon-perl/0.23-1.1 2022-06-15 02:42:23 UTC 0h 17m 28s - pass logartifacts
1:2.6-2 usb.ids/2022.05.20-1 2022-06-11 07:47:41 UTC 0h 12m 23s - pass logartifacts
1:2.6-2 libjson-pp-perl/4.09000-1 2022-05-26 02:58:41 UTC 0h 15m 01s - pass logartifacts
1:2.6-2 libwww-perl/6.66-1 2022-05-22 22:43:20 UTC 0h 14m 28s - pass logartifacts
1:2.6-2 libwww-perl/6.65-1 2022-05-21 03:02:10 UTC 0h 15m 28s - pass logartifacts
1:2.6-2 usb.ids/2022.05.09-1 2022-05-17 09:34:29 UTC 0h 14m 09s - pass logartifacts
1:2.6-2 libxml-xpath-perl/1.47-1 2022-05-16 01:19:27 UTC 0h 15m 57s - pass logartifacts
1:2.6-2 libtext-template-perl/1.61-1 2022-05-14 02:07:10 UTC 0h 17m 32s - pass logartifacts
1:2.6-2 libfile-which-perl/1.27-1 2022-05-11 22:08:41 UTC 0h 14m 51s - pass logartifacts
1:2.6-2 libwww-perl/6.64-1 2022-05-07 23:42:11 UTC 0h 14m 26s - pass logartifacts
1:2.6-2 libjson-pp-perl/4.08000-1 2022-04-30 14:46:40 UTC 0h 14m 56s - pass logartifacts
1:2.6-2 libhttp-daemon-perl/6.14-1 2022-04-30 03:48:24 UTC 0h 25m 53s - pass logartifacts
1:2.6-2 pci.ids/0.0~2022.04.15-1 2022-04-29 23:35:26 UTC 0h 21m 24s - pass logartifacts
1:2.6-2 usb.ids/2022.04.02-1 2022-04-04 11:31:16 UTC 0h 27m 36s - pass logartifacts
1:2.6-2 migration-reference/0 2022-02-07 12:27:03 UTC 0h 15m 57s - pass logartifacts